Time;durP1;ratioP1;P1;durP2;ratioP2;P2;SDS_P1;SDS_P2;PMS_P1;PMS_P2;Temp;Humidity;BMP_temperature;BMP_pressure;BME280_temperature;BME280_humidity;BME280_pressure;Samples;Min_cycle;Max_cycle;Signal;HPM_P1;HPM_P2
2021/11/07 00:00:29;;;;;;;;;;;;;;;7.51;100.00;100999.47;5091985;28;19973;-74
2021/11/07 00:03:03;;;;;;;;;;;;;;;7.52;100.00;101007.47;5093436;28;19924;-76
2021/11/07 00:05:32;;;;;;;;;;;;;;;7.51;100.00;100992.22;5092859;28;19924;-76
2021/11/07 00:08:16;;;;;;;;;;;;;;;7.52;100.00;100993.97;5092632;28;19924;-76
2021/11/07 00:10:46;;;;;;;;;;;;;;;7.53;100.00;100976.78;5091311;28;19924;-76
2021/11/07 00:13:16;;;;;;;;;;;;;;;7.56;100.00;100969.44;5091342;28;19928;-76
2021/11/07 00:15:42;;;;;;;;;;;;;;;7.54;100.00;100966.84;5092347;28;19927;-76
2021/11/07 00:18:12;;;;;;;;;;;;;;;7.54;100.00;100946.09;5092550;28;19924;-76
2021/11/07 00:20:44;;;;;;;;;;;;;;;7.54;100.00;100942.53;5092382;28;19947;-76
2021/11/07 00:23:19;;;;;;;;;;;;;;;7.53;100.00;100943.50;5092488;28;19924;-76
2021/11/07 00:25:50;;;;;;;;;;;;;;;7.51;100.00;100946.31;5092019;28;20281;-75
2021/11/07 00:28:22;;;;;;;;;;;;;;;7.46;100.00;100937.63;5092265;28;20431;-76
2021/11/07 00:30:54;;;;;;;;;;;;;;;7.42;100.00;100940.63;5092122;28;19924;-76
2021/11/07 00:33:25;;;;;;;;;;;;;;;7.40;100.00;100932.59;5091921;28;20370;-76
2021/11/07 00:36:10;;;;;;;;;;;;;;;7.38;100.00;100930.00;5092125;28;20441;-75
2021/11/07 00:38:43;;;;;;;;;;;;;;;7.38;100.00;100930.00;5092193;28;19924;-77
2021/11/07 00:41:21;;;;;;;;;;;;;;;7.40;100.00;100915.53;5091106;28;19924;-76
2021/11/07 00:43:52;;;;;;;;;;;;;;;7.38;100.00;100912.94;5092127;28;19970;-76
2021/11/07 00:46:22;;;;;;;;;;;;;;;7.36;100.00;100899.56;5091975;28;20142;-76
2021/11/07 00:48:56;;;;;;;;;;;;;;;7.32;100.00;100886.34;5092103;28;19931;-77
2021/11/07 00:51:26;;;;;;;;;;;;;;;7.24;100.00;100867.06;5091335;28;19924;-76
2021/11/07 00:54:03;;;;;;;;;;;;;;;7.16;100.00;100862.16;5091958;28;19950;-76
2021/11/07 00:56:36;;;;;;;;;;;;;;;7.07;100.00;100860.94;5091835;28;19924;-76
2021/11/07 00:59:09;;;;;;;;;;;;;;;6.99;100.00;100860.56;5090685;28;19924;-76
2021/11/07 01:01:39;;;;;;;;;;;;;;;6.92;100.00;100859.22;5091607;28;19930;-76
2021/11/07 01:04:07;;;;;;;;;;;;;;;6.82;100.00;100861.63;5091860;28;19992;-76
2021/11/07 01:06:34;;;;;;;;;;;;;;;6.82;100.00;100858.94;5091842;28;19942;-76
2021/11/07 01:09:01;;;;;;;;;;;;;;;6.84;100.00;100854.28;5091902;28;19924;-76
2021/11/07 01:11:27;;;;;;;;;;;;;;;6.80;100.00;100845.53;5091208;28;19977;-76
2021/11/07 01:13:55;;;;;;;;;;;;;;;6.82;100.00;100845.44;5091624;28;20027;-76
2021/11/07 01:16:22;;;;;;;;;;;;;;;6.81;100.00;100843.69;5091767;28;19924;-76
2021/11/07 01:18:48;;;;;;;;;;;;;;;6.79;100.00;100843.81;5091611;28;19985;-76
2021/11/07 01:21:17;;;;;;;;;;;;;;;6.81;100.00;100838.31;5091499;28;19947;-76
2021/11/07 01:23:47;;;;;;;;;;;;;;;6.80;100.00;100817.69;5091636;28;20400;-76
2021/11/07 01:26:17;;;;;;;;;;;;;;;6.77;100.00;100810.66;5090569;28;20023;-77
2021/11/07 01:28:48;;;;;;;;;;;;;;;6.74;100.00;100810.84;5091564;28;19928;-76
2021/11/07 01:31:16;;;;;;;;;;;;;;;6.73;100.00;100809.09;5090983;28;19970;-77
2021/11/07 01:33:43;;;;;;;;;;;;;;;6.69;100.00;100802.19;5091626;28;19928;-76
2021/11/07 01:36:22;;;;;;;;;;;;;;;6.66;100.00;100799.69;5092356;28;20011;-76
2021/11/07 01:38:50;;;;;;;;;;;;;;;6.68;100.00;100790.53;5095598;28;19924;-76
2021/11/07 01:41:22;;;;;;;;;;;;;;;6.70;100.00;100785.88;5095477;28;19955;-76
2021/11/07 01:43:50;;;;;;;;;;;;;;;6.72;100.00;100763.34;5095692;28;19930;-76
2021/11/07 01:46:26;;;;;;;;;;;;;;;6.69;100.00;100759.00;5093931;28;20293;-76
2021/11/07 01:48:58;;;;;;;;;;;;;;;6.70;100.00;100766.16;5095351;28;19927;-76
2021/11/07 01:51:25;;;;;;;;;;;;;;;6.68;100.00;100749.19;5095163;28;19924;-76
2021/11/07 01:53:54;;;;;;;;;;;;;;;6.70;100.00;100744.56;5095369;28;19924;-75
2021/11/07 01:56:20;;;;;;;;;;;;;;;6.73;100.00;100747.06;5095190;28;19925;-76
2021/11/07 01:58:47;;;;;;;;;;;;;;;6.77;100.00;100737.78;5093832;28;19924;-76
2021/11/07 02:01:21;;;;;;;;;;;;;;;6.80;100.00;100737.63;5095183;28;19950;-76
2021/11/07 02:03:48;;;;;;;;;;;;;;;6.83;100.00;100734.72;5097651;28;19924;-76
2021/11/07 02:06:15;;;;;;;;;;;;;;;6.88;100.00;100726.28;5093809;28;19928;-75
2021/11/07 02:08:42;;;;;;;;;;;;;;;6.91;100.00;100717.13;5094934;28;19924;-75
2021/11/07 02:11:08;;;;;;;;;;;;;;;6.93;100.00;100718.75;5094932;28;19932;-76
2021/11/07 02:13:34;;;;;;;;;;;;;;;6.96;100.00;100704.22;5095031;28;20393;-76
2021/11/07 02:16:03;;;;;;;;;;;;;;;6.96;100.00;100705.09;5093762;28;19924;-75
2021/11/07 02:18:29;;;;;;;;;;;;;;;6.97;100.00;100708.66;5094838;28;19977;-75
2021/11/07 02:20:57;;;;;;;;;;;;;;;6.98;100.00;100691.50;5094766;28;19969;-74
2021/11/07 02:23:25;;;;;;;;;;;;;;;6.99;100.00;100690.53;5094702;28;19928;-75
2021/11/07 02:25:53;;;;;;;;;;;;;;;7.02;100.00;100685.78;5093580;28;20433;-75
2021/11/07 02:28:24;;;;;;;;;;;;;;;7.04;100.00;100678.44;5094760;28;19924;-75
2021/11/07 02:30:50;;;;;;;;;;;;;;;7.05;100.00;100668.50;5093293;28;20377;-74
2021/11/07 02:33:16;;;;;;;;;;;;;;;7.07;100.00;100677.38;5094567;28;19977;-76
2021/11/07 02:35:43;;;;;;;;;;;;;;;7.06;100.00;100664.84;5094762;28;19924;-75
2021/11/07 02:38:11;;;;;;;;;;;;;;;7.05;100.00;100663.09;5094913;28;19978;-75
2021/11/07 02:44:28;;;;;;;;;;;;;;;7.05;100.00;100652.31;5095106;28;20006;-75
2021/11/07 02:46:55;;;;;;;;;;;;;;;7.07;100.00;100647.69;5094277;28;19977;-75
2021/11/07 02:49:21;;;;;;;;;;;;;;;7.07;100.00;100641.41;5094256;28;19925;-75
2021/11/07 02:51:47;;;;;;;;;;;;;;;7.08;100.00;100627.84;5094168;28;19977;-75
2021/11/07 02:54:15;;;;;;;;;;;;;;;7.10;100.00;100616.94;5094096;28;19951;-75
2021/11/07 02:56:41;;;;;;;;;;;;;;;7.11;100.00;100611.41;5094199;28;19924;-75
2021/11/07 02:59:09;;;;;;;;;;;;;;;7.12;100.00;100605.06;5094003;28;19977;-75
2021/11/07 03:01:35;;;;;;;;;;;;;;;7.14;100.00;100610.34;5094024;28;19967;-75
2021/11/07 03:04:06;;;;;;;;;;;;;;;7.13;100.00;100600.50;5093860;28;19960;-75
2021/11/07 03:06:33;;;;;;;;;;;;;;;7.13;100.00;100600.50;5094013;28;19950;-75
2021/11/07 03:09:00;;;;;;;;;;;;;;;7.14;100.00;100596.84;5094059;28;19924;-75
2021/11/07 03:11:27;;;;;;;;;;;;;;;7.16;100.00;100584.09;5093527;28;19931;-74
2021/11/07 03:13:58;;;;;;;;;;;;;;;7.17;100.00;100580.44;5093843;28;20317;-75
2021/11/07 03:16:25;;;;;;;;;;;;;;;7.18;100.00;100572.22;5093588;28;19931;-75
2021/11/07 03:18:51;;;;;;;;;;;;;;;7.18;100.00;100569.50;5093796;28;19993;-75
2021/11/07 03:21:22;;;;;;;;;;;;;;;7.19;100.00;100555.06;5093942;28;19924;-75
2021/11/07 03:23:51;;;;;;;;;;;;;;;7.19;100.00;100546.94;5093905;28;19931;-75
2021/11/07 03:26:18;;;;;;;;;;;;;;;7.19;100.00;100538.84;5093898;28;19924;-76
2021/11/07 03:28:47;;;;;;;;;;;;;;;7.23;100.00;100542.22;5093764;28;19977;-75
2021/11/07 03:31:16;;;;;;;;;;;;;;;7.26;100.00;100543.84;5093502;28;20063;-75
2021/11/07 03:33:46;;;;;;;;;;;;;;;7.27;100.00;100543.72;5093150;28;19974;-75
2021/11/07 03:36:17;;;;;;;;;;;;;;;7.27;100.00;100540.13;5093550;28;19924;-75
2021/11/07 03:38:43;;;;;;;;;;;;;;;7.30;100.00;100529.16;5093446;28;20333;-75
2021/11/07 03:41:10;;;;;;;;;;;;;;;7.32;100.00;100537.97;5093340;28;20415;-75
2021/11/07 03:43:37;;;;;;;;;;;;;;;7.31;100.00;100533.53;5092971;28;19924;-75
2021/11/07 03:46:04;;;;;;;;;;;;;;;7.33;100.00;100537.00;5093270;28;19963;-75
2021/11/07 03:48:31;;;;;;;;;;;;;;;7.34;100.00;100536.06;5093231;28;19959;-75
2021/11/07 03:51:00;;;;;;;;;;;;;;;7.33;100.00;100527.06;5092653;28;20252;-75
2021/11/07 03:53:26;;;;;;;;;;;;;;;7.30;100.00;100526.44;5092906;28;19944;-75
2021/11/07 03:55:52;;;;;;;;;;;;;;;7.29;100.00;100524.72;5092769;28;19967;-75
2021/11/07 03:58:19;;;;;;;;;;;;;;;7.24;100.00;100513.38;5092991;28;19924;-75
2021/11/07 04:00:46;;;;;;;;;;;;;;;7.16;100.00;100498.59;5092253;28;19924;-75
2021/11/07 04:03:14;;;;;;;;;;;;;;;7.02;100.00;100496.84;5092436;28;19959;-76
2021/11/07 04:05:40;;;;;;;;;;;;;;;6.90;100.00;100500.41;5092912;28;20015;-76
2021/11/07 04:08:07;;;;;;;;;;;;;;;6.82;100.00;100497.38;5092894;28;20481;-74
2021/11/07 04:10:34;;;;;;;;;;;;;;;6.78;100.00;100494.00;5090893;28;19930;-75
2021/11/07 04:13:00;;;;;;;;;;;;;;;6.74;100.00;100489.81;5092782;28;19931;-75
2021/11/07 04:15:27;;;;;;;;;;;;;;;6.71;100.00;100476.53;5092870;28;19963;-75
2021/11/07 04:17:53;;;;;;;;;;;;;;;6.69;100.00;100478.47;5092647;28;19960;-76
2021/11/07 04:20:21;;;;;;;;;;;;;;;6.67;100.00;100473.19;5092744;28;19975;-75
2021/11/07 04:22:47;;;;;;;;;;;;;;;6.68;100.00;100472.22;5092633;28;19931;-75
2021/11/07 04:25:14;;;;;;;;;;;;;;;6.69;100.00;100467.66;5092686;28;20019;-75
2021/11/07 04:27:41;;;;;;;;;;;;;;;6.70;100.00;100464.88;5092488;28;20031;-75
2021/11/07 04:30:07;;;;;;;;;;;;;;;6.74;100.00;100457.44;5092523;28;20364;-76
2021/11/07 04:32:34;;;;;;;;;;;;;;;6.75;100.00;100461.88;5092716;28;20352;-76
2021/11/07 04:35:00;;;;;;;;;;;;;;;6.78;100.00;100464.34;5091101;28;19964;-75
2021/11/07 04:37:28;;;;;;;;;;;;;;;6.83;100.00;100458.63;5092137;28;20460;-76
2021/11/07 04:39:55;;;;;;;;;;;;;;;6.85;100.00;100438.69;5092102;28;19924;-76
2021/11/07 04:42:21;;;;;;;;;;;;;;;6.91;100.00;100455.38;5092216;28;19932;-75
2021/11/07 04:44:48;;;;;;;;;;;;;;;6.94;100.00;100460.59;5091780;28;20015;-75
2021/11/07 04:47:14;;;;;;;;;;;;;;;6.96;100.00;100437.91;5092094;28;19973;-75
2021/11/07 04:49:40;;;;;;;;;;;;;;;6.98;100.00;100448.59;5092030;28;19924;-75
2021/11/07 04:52:07;;;;;;;;;;;;;;;6.98;100.00;100456.69;5090761;28;19959;-74
2021/11/07 04:54:34;;;;;;;;;;;;;;;6.98;100.00;100448.59;5092028;28;19936;-75
2021/11/07 04:57:01;;;;;;;;;;;;;;;6.98;100.00;100437.81;5091983;28;19958;-75
2021/11/07 04:59:27;;;;;;;;;;;;;;;6.95;100.00;100428.09;5091809;28;20397;-75
2021/11/07 05:01:55;;;;;;;;;;;;;;;6.93;100.00;100437.25;5090046;28;19989;-75
2021/11/07 05:04:22;;;;;;;;;;;;;;;6.91;100.00;100434.69;5091726;28;19924;-75
2021/11/07 05:06:50;;;;;;;;;;;;;;;6.92;100.00;100424.72;5091636;28;19928;-75
2021/11/07 05:09:17;;;;;;;;;;;;;;;6.91;100.00;100431.09;5091800;28;19924;-75
2021/11/07 05:11:45;;;;;;;;;;;;;;;6.87;100.00;100422.38;5090564;28;19932;-75
2021/11/07 05:14:12;;;;;;;;;;;;;;;6.85;100.00;100409.00;5091389;28;19977;-75
2021/11/07 05:16:39;;;;;;;;;;;;;;;6.83;100.00;100410.06;5091755;28;19924;-75
2021/11/07 05:19:06;;;;;;;;;;;;;;;6.82;100.00;100403.78;5091463;28;19997;-76
2021/11/07 05:21:32;;;;;;;;;;;;;;;6.82;100.00;100406.50;5091589;28;19924;-75
2021/11/07 05:23:58;;;;;;;;;;;;;;;6.83;100.00;100407.38;5091638;28;20465;-75
2021/11/07 05:26:25;;;;;;;;;;;;;;;6.84;100.00;100401.88;5091894;28;19958;-75
2021/11/07 05:28:52;;;;;;;;;;;;;;;6.87;100.00;100395.38;5092008;28;19951;-75
2021/11/07 05:31:19;;;;;;;;;;;;;;;6.92;100.00;100403.16;5091466;28;19935;-75
2021/11/07 05:33:45;;;;;;;;;;;;;;;6.98;100.00;100375.72;5091543;28;19924;-75
2021/11/07 05:36:12;;;;;;;;;;;;;;;7.04;100.00;100373.44;5091480;28;20365;-75
2021/11/07 05:38:38;;;;;;;;;;;;;;;7.10;100.00;100380.25;5091584;28;19965;-75
2021/11/07 05:41:05;;;;;;;;;;;;;;;7.15;100.00;100375.38;5091030;28;20001;-75
2021/11/07 05:43:31;;;;;;;;;;;;;;;7.23;100.00;100382.94;5091229;28;20011;-75
2021/11/07 05:45:59;;;;;;;;;;;;;;;7.29;100.00;100378.91;5091292;28;19924;-75
2021/11/07 05:48:25;;;;;;;;;;;;;;;7.34;100.00;100368.63;5091243;28;19924;-75
2021/11/07 05:50:52;;;;;;;;;;;;;;;7.34;100.00;100366.78;5091069;28;19925;-75
2021/11/07 05:53:19;;;;;;;;;;;;;;;7.31;100.00;100360.75;5090866;28;20082;-75
2021/11/07 05:55:45;;;;;;;;;;;;;;;7.30;100.00;100372.53;5090741;28;19955;-75
2021/11/07 05:58:12;;;;;;;;;;;;;;;7.29;100.00;100365.41;5090642;28;19955;-76
2021/11/07 06:00:38;;;;;;;;;;;;;;;7.30;100.00;100353.63;5091117;28;20031;-75
2021/11/07 06:03:07;;;;;;;;;;;;;;;7.31;100.00;100367.03;5090990;28;19934;-76
2021/11/07 06:05:34;;;;;;;;;;;;;;;7.37;100.00;100371.94;5090831;28;19946;-75
2021/11/07 06:08:00;;;;;;;;;;;;;;;7.44;100.00;100376.91;5090787;28;20023;-75
2021/11/07 06:10:26;;;;;;;;;;;;;;;7.47;100.00;100347.84;5090058;28;19960;-75
2021/11/07 06:12:53;;;;;;;;;;;;;;;7.52;100.00;100355.59;5100572;28;20452;-76
2021/11/07 06:15:19;;;;;;;;;;;;;;;7.54;100.00;100334.75;5090689;28;20247;-76
2021/11/07 06:17:45;;;;;;;;;;;;;;;7.57;100.00;100334.50;5091222;28;19970;-76
2021/11/07 06:20:13;;;;;;;;;;;;;;;7.63;100.00;100327.78;5091079;28;20249;-75
2021/11/07 06:22:40;;;;;;;;;;;;;;;7.67;100.00;100335.56;5092008;28;20023;-75
2021/11/07 06:25:07;;;;;;;;;;;;;;;7.68;100.00;100339.09;5094508;28;20413;-76
2021/11/07 06:27:34;;;;;;;;;;;;;;;7.73;100.00;100326.13;5094246;28;19993;-75
2021/11/07 06:30:01;;;;;;;;;;;;;;;7.77;100.00;100321.34;5094103;28;20204;-75
2021/11/07 06:32:27;;;;;;;;;;;;;;;7.80;100.00;100329.22;5094087;28;20389;-76
2021/11/07 06:34:53;;;;;;;;;;;;;;;7.83;100.00;100320.88;5107849;28;19933;-75
2021/11/07 06:37:21;;;;;;;;;;;;;;;7.85;100.00;100317.06;5111045;28;20018;-75
2021/11/07 06:39:47;;;;;;;;;;;;;;;7.87;100.00;100328.63;5093879;28;19931;-75
2021/11/07 06:42:14;;;;;;;;;;;;;;;7.91;100.00;100323.00;5095530;28;19924;-75
2021/11/07 06:44:41;;;;;;;;;;;;;;;7.93;100.00;100321.03;5094103;28;20480;-75
2021/11/07 06:47:08;;;;;;;;;;;;;;;7.93;100.00;100318.34;5100217;28;20423;-75
2021/11/07 06:49:35;;;;;;;;;;;;;;;7.92;100.00;100319.31;5110245;28;20010;-76
2021/11/07 06:52:03;;;;;;;;;;;;;;;7.93;100.00;100316.50;5106976;28;20312;-76
2021/11/07 06:54:30;;;;;;;;;;;;;;;7.95;100.00;100321.78;5094562;28;20027;-75
2021/11/07 06:56:57;;;;;;;;;;;;;;;7.97;100.00;100319.81;5094432;28;19960;-75
2021/11/07 06:59:23;;;;;;;;;;;;;;;7.97;100.00;100314.41;5095292;28;19924;-75
2021/11/07 07:01:50;;;;;;;;;;;;;;;7.98;100.00;100319.69;5095954;28;20392;-74
2021/11/07 07:04:17;;;;;;;;;;;;;;;7.98;100.00;100310.75;5093936;28;20026;-75
2021/11/07 07:06:43;;;;;;;;;;;;;;;7.99;100.00;100312.44;5097965;28;20385;-74
2021/11/07 07:09:11;;;;;;;;;;;;;;;7.99;100.00;100317.84;5094804;28;19977;-73
2021/11/07 07:11:43;;;;;;;;;;;;;;;7.99;100.00;100307.03;5096408;28;20586;-75
2021/11/07 07:14:11;;;;;;;;;;;;;;;7.99;100.00;100312.44;5098206;28;19924;-74
2021/11/07 07:16:44;;;;;;;;;;;;;;;7.98;100.00;100305.34;5099600;28;19952;-74
2021/11/07 07:19:43;;;;;;;;;;;;;;;7.99;100.00;100299.81;5105885;28;19968;-75
2021/11/07 07:22:22;;;;;;;;;;;;;;;7.98;100.00;100332.38;5110821;28;19923;-75
2021/11/07 07:25:05;;;;;;;;;;;;;;;8.00;100.00;100316.88;5102483;28;19924;-75
2021/11/07 07:30:32;;;;;;;;;;;;;;;8.02;100.00;100309.53;5106335;28;19927;-75
2021/11/07 07:33:03;;;;;;;;;;;;;;;8.04;100.00;100310.25;5103384;28;19931;-74
2021/11/07 07:35:30;;;;;;;;;;;;;;;8.05;100.00;100302.03;5106367;28;19938;-75
2021/11/07 07:37:57;;;;;;;;;;;;;;;8.06;100.00;100308.31;5113712;28;20403;-75
2021/11/07 07:40:23;;;;;;;;;;;;;;;8.05;100.00;100310.13;5113241;28;20038;-75
2021/11/07 07:42:51;;;;;;;;;;;;;;;8.04;100.00;100305.72;5113221;28;19967;-76
2021/11/07 07:45:18;;;;;;;;;;;;;;;8.09;100.00;100307.22;5114488;28;20408;-75
2021/11/07 07:47:44;;;;;;;;;;;;;;;8.07;100.00;100301.03;5113591;28;20015;-75
2021/11/07 07:50:11;;;;;;;;;;;;;;;8.05;100.00;100296.63;5113277;28;19928;-76
2021/11/07 07:52:38;;;;;;;;;;;;;;;8.04;100.00;100303.03;5109418;28;20196;-76
2021/11/07 07:55:04;;;;;;;;;;;;;;;8.03;100.00;100306.69;5091738;28;19969;-76
2021/11/07 07:57:31;;;;;;;;;;;;;;;8.04;100.00;100300.31;5109178;28;20023;-76
2021/11/07 07:59:58;;;;;;;;;;;;;;;8.04;100.00;100292.22;5098352;28;20023;-75
2021/11/07 08:02:25;;;;;;;;;;;;;;;8.04;100.00;100289.50;5092415;28;19956;-74
2021/11/07 08:04:52;;;;;;;;;;;;;;;8.03;100.00;100298.59;5092999;28;20019;-75
2021/11/07 08:07:19;;;;;;;;;;;;;;;8.04;100.00;100289.50;5093452;28;19924;-74
2021/11/07 08:09:45;;;;;;;;;;;;;;;8.04;100.00;100294.03;5094984;28;20379;-74
2021/11/07 08:12:11;;;;;;;;;;;;;;;8.03;100.00;100287.78;5092793;28;20014;-74
2021/11/07 08:14:37;;;;;;;;;;;;;;;8.01;100.00;100269.94;5092463;28;20014;-74
2021/11/07 08:17:06;;;;;;;;;;;;;;;7.99;100.00;100293.53;5092702;28;19959;-75
2021/11/07 08:19:32;;;;;;;;;;;;;;;8.00;100.00;100281.72;5092280;28;19932;-75
2021/11/07 08:21:58;;;;;;;;;;;;;;;8.04;100.00;100289.50;5092832;28;20357;-74
2021/11/07 08:24:26;;;;;;;;;;;;;;;8.12;100.00;100290.75;5092464;28;20023;-74
2021/11/07 08:26:52;;;;;;;;;;;;;;;8.18;100.00;100277.59;5092537;28;19977;-74
2021/11/07 08:29:18;;;;;;;;;;;;;;;8.27;100.00;100273.34;5092391;28;20429;-73
2021/11/07 08:31:49;;;;;;;;;;;;;;;8.39;100.00;100260.66;5090934;28;19967;-73
2021/11/07 08:34:18;;;;;;;;;;;;;;;8.51;100.00;100267.84;5092091;28;19924;-75
2021/11/07 08:36:49;;;;;;;;;;;;;;;8.57;100.00;100263.78;5091946;28;20377;-75
2021/11/07 08:39:18;;;;;;;;;;;;;;;8.57;100.00;100262.94;5091816;28;19925;-75
2021/11/07 08:41:52;;;;;;;;;;;;;;;8.57;100.00;100249.41;5091672;28;19924;-74
2021/11/07 09:00:46;;;;;;;;;;;;;;;9.05;100.00;100243.69;5091714;28;20374;-74
2021/11/07 09:03:28;;;;;;;;;;;;;;;9.07;100.00;100238.97;5091676;28;19946;-74
2021/11/07 09:06:11;;;;;;;;;;;;;;;9.09;100.00;100242.44;5091852;28;19925;-74
2021/11/07 09:08:39;;;;;;;;;;;;;;;9.07;100.00;100232.72;5091669;28;19973;-75
2021/11/07 09:11:06;;;;;;;;;;;;;;;9.06;100.00;100237.28;5091174;28;20030;-75
2021/11/07 09:13:33;;;;;;;;;;;;;;;9.12;100.00;100233.19;5091390;28;19924;-75
2021/11/07 09:15:59;;;;;;;;;;;;;;;9.09;100.00;100234.31;5091562;28;19924;-73
2021/11/07 09:18:26;;;;;;;;;;;;;;;9.12;100.00;100225.91;5091476;28;19925;-74
2021/11/07 09:21:00;;;;;;;;;;;;;;;9.16;100.00;100208.44;5091337;28;19924;-75
2021/11/07 09:23:31;;;;;;;;;;;;;;;9.26;100.00;100195.00;5091495;28;20020;-73
2021/11/07 09:26:19;;;;;;;;;;;;;;;9.37;100.00;100186.81;5090316;28;20348;-73
2021/11/07 09:28:49;;;;;;;;;;;;;;;9.53;100.00;100199.06;5091392;28;20246;-74
2021/11/07 09:31:24;;;;;;;;;;;;;;;9.67;100.00;100192.44;5090136;28;20312;-74
2021/11/07 09:34:04;;;;;;;;;;;;;;;9.61;100.00;100176.75;5091603;28;19932;-74
2021/11/07 09:36:34;;;;;;;;;;;;;;;9.69;100.00;100185.91;5091347;28;19931;-73
2021/11/07 09:39:16;;;;;;;;;;;;;;;10.14;100.00;100195.59;5091661;28;19931;-74
2021/11/07 09:41:55;;;;;;;;;;;;;;;10.31;100.00;100185.09;5091327;28;19931;-74
2021/11/07 09:44:22;;;;;;;;;;;;;;;10.37;100.00;100181.91;5091250;28;19924;-73
2021/11/07 09:46:51;;;;;;;;;;;;;;;10.22;100.00;100179.50;5091541;28;20027;-74
2021/11/07 09:49:21;;;;;;;;;;;;;;;10.06;100.00;100181.84;5091151;28;19938;-74
2021/11/07 09:51:54;;;;;;;;;;;;;;;9.84;100.00;100183.72;5091242;28;19932;-73
2021/11/07 09:54:22;;;;;;;;;;;;;;;9.70;100.00;100189.47;5091011;28;19924;-74
2021/11/07 09:56:51;;;;;;;;;;;;;;;9.57;100.00;100183.38;5091767;28;19930;-74
2021/11/07 09:59:18;;;;;;;;;;;;;;;9.50;100.00;100189.34;5095130;28;19924;-74
2021/11/07 10:01:45;;;;;;;;;;;;;;;9.45;100.00;100198.88;5093840;28;19981;-75
2021/11/07 10:04:13;;;;;;;;;;;;;;;9.30;100.00;100206.41;5095182;28;19924;-74
2021/11/07 10:06:43;;;;;;;;;;;;;;;9.21;100.00;100214.31;5094995;28;19924;-74
2021/11/07 10:09:11;;;;;;;;;;;;;;;9.15;100.00;100217.56;5095128;28;20347;-75
2021/11/07 10:11:59;;;;;;;;;;;;;;;9.07;100.00;100222.72;5094691;28;20026;-74
2021/11/07 10:14:38;;;;;;;;;;;;;;;9.03;100.00;100205.03;5112528;28;19924;-74
2021/11/07 10:17:06;;;;;;;;;;;;;;;9.01;100.00;100217.84;5115217;28;19924;-74
2021/11/07 10:19:35;;;;;;;;;;;;;;;9.07;100.00;100220.03;5115313;28;20354;-75
2021/11/07 10:22:03;;;;;;;;;;;;;;;9.29;100.00;100226.38;5114623;28;20004;-75
2021/11/07 10:24:34;;;;;;;;;;;;;;;9.48;100.00;100215.69;5115201;28;19924;-75
2021/11/07 10:27:05;;;;;;;;;;;;;;;9.50;100.00;100205.59;5114944;28;20008;-75
2021/11/07 10:29:35;;;;;;;;;;;;;;;9.35;100.00;100199.63;5113881;28;19930;-74
2021/11/07 10:32:07;;;;;;;;;;;;;;;9.16;100.00;100192.19;5115011;28;19931;-76
2021/11/07 10:37:33;;;;;;;;;;;;;;;8.33;100.00;100228.72;5114629;28;19931;-75
2021/11/07 10:43:02;;;;;;;;;;;;;;;8.01;100.00;100234.81;5109517;28;19939;-75
2021/11/07 10:45:40;;;;;;;;;;;;;;;8.02;100.00;100221.19;5114539;28;20010;-76
2021/11/07 10:53:42;;;;;;;;;;;;;;;9.37;100.00;100202.22;5114652;28;20501;-75
2021/11/07 10:56:09;;;;;;;;;;;;;;;9.72;100.00;100201.03;5112955;28;20035;-75
2021/11/07 10:58:38;;;;;;;;;;;;;;;10.06;100.00;100192.69;5110385;28;20393;-76
2021/11/07 11:01:05;;;;;;;;;;;;;;;10.27;100.00;100184.50;5110985;28;20039;-76
2021/11/07 11:03:32;;;;;;;;;;;;;;;10.50;100.00;100174.38;5106076;28;19994;-76
2021/11/07 11:06:04;;;;;;;;;;;;;;;10.57;100.00;100171.09;5094025;28;20325;-76
2021/11/07 11:08:34;;;;;;;;;;;;;;;10.45;100.00;100154.94;5113053;28;19930;-75
2021/11/07 11:11:04;;;;;;;;;;;;;;;10.42;100.00;100168.75;5113990;28;19975;-75
2021/11/07 11:13:40;;;;;;;;;;;;;;;10.34;100.00;100172.13;5113847;28;19931;-76
2021/11/07 11:21:49;;;;;;;;;;;;;;;9.43;100.00;100182.72;5114604;28;19927;-76
2021/11/07 11:24:26;;;;;;;;;;;;;;;9.05;100.00;100192.22;5114219;28;20364;-76
2021/11/07 11:27:01;;;;;;;;;;;;;;;8.68;100.00;100200.69;5114218;28;19930;-75
2021/11/07 11:29:46;;;;;;;;;;;;;;;8.44;100.00;100203.50;5113817;28;19946;-76
2021/11/07 11:32:19;;;;;;;;;;;;;;;8.46;100.00;100196.16;5094219;28;20021;-75
2021/11/07 11:34:51;;;;;;;;;;;;;;;8.47;100.00;100187.94;5092854;28;19934;-74
2021/11/07 11:37:22;;;;;;;;;;;;;;;8.52;100.00;100201.94;5093160;28;19960;-76
2021/11/07 11:39:51;;;;;;;;;;;;;;;8.59;100.00;100193.31;5106163;28;19931;-75
2021/11/07 11:42:23;;;;;;;;;;;;;;;8.59;100.00;100196.91;5112134;28;19976;-75
2021/11/07 11:44:52;;;;;;;;;;;;;;;8.68;100.00;100195.25;5109544;28;19959;-76
2021/11/07 11:47:35;;;;;;;;;;;;;;;8.90;100.00;100191.66;5093232;28;20050;-76
2021/11/07 11:50:19;;;;;;;;;;;;;;;8.90;100.00;100185.38;5092807;28;20373;-75
2021/11/07 11:52:54;;;;;;;;;;;;;;;9.00;100.00;100176.34;5092776;28;20381;-75
2021/11/07 11:55:39;;;;;;;;;;;;;;;9.07;100.00;100173.16;5093037;28;20443;-75
2021/11/07 12:00:57;;;;;;;;;;;;;;;9.11;100.00;100171.91;5089121;28;19924;-75
2021/11/07 12:03:42;;;;;;;;;;;;;;;9.15;100.00;100176.06;5093792;28;19924;-75
2021/11/07 12:06:24;;;;;;;;;;;;;;;9.21;100.00;100176.41;5110957;28;20034;-75
2021/11/07 12:09:10;;;;;;;;;;;;;;;9.38;100.00;100182.28;5099557;28;19969;-75
2021/11/07 12:11:46;;;;;;;;;;;;;;;9.62;100.00;100178.44;5110761;28;19959;-76
2021/11/07 12:14:15;;;;;;;;;;;;;;;9.84;100.00;100174.72;5111962;28;19936;-76
2021/11/07 12:16:48;;;;;;;;;;;;;;;9.84;100.00;100181.00;5100606;28;19925;-76
2021/11/07 12:19:16;;;;;;;;;;;;;;;9.68;100.00;100162.50;5093385;28;19928;-75
2021/11/07 12:21:57;;;;;;;;;;;;;;;9.67;100.00;100166.22;5106219;28;19992;-76
2021/11/07 12:24:25;;;;;;;;;;;;;;;10.21;100.00;100166.94;5109817;28;19977;-75
2021/11/07 12:26:52;;;;;;;;;;;;;;;10.60;100.00;100157.25;5091907;28;20389;-75
2021/11/07 12:29:37;;;;;;;;;;;;;;;11.18;100.00;100135.63;5093521;28;20015;-76
2021/11/07 12:32:06;;;;;;;;;;;;;;;11.71;100.00;100130.69;5092082;28;20396;-75
2021/11/07 12:34:48;;;;;;;;;;;;;;;12.41;100.00;100133.03;5093275;28;19924;-75
2021/11/07 12:42:59;;;;;;;;;;;;;;;12.38;100.00;100128.72;5102125;28;19947;-75
2021/11/07 12:45:26;;;;;;;;;;;;;;;11.93;100.00;100144.94;5111523;28;20014;-75
2021/11/07 12:47:58;;;;;;;;;;;;;;;11.39;100.00;100148.19;5111892;28;20384;-75
2021/11/07 12:50:25;;;;;;;;;;;;;;;11.37;100.00;100151.06;5112174;28;19993;-75
2021/11/07 12:52:56;;;;;;;;;;;;;;;11.39;100.00;100148.19;5102535;28;20252;-75
2021/11/07 12:55:25;;;;;;;;;;;;;;;11.57;100.00;100140.13;5112172;28;20376;-75
2021/11/07 12:57:51;;;;;;;;;;;;;;;12.17;100.00;100147.16;5103649;28;19932;-76
2021/11/07 13:00:18;;;;;;;;;;;;;;;11.98;100.00;100135.34;5093295;28;19970;-76
2021/11/07 13:02:45;;;;;;;;;;;;;;;11.41;100.00;100143.47;5092030;28;19924;-76
2021/11/07 13:05:16;;;;;;;;;;;;;;;10.81;100.00;100140.84;5091668;28;20015;-75
2021/11/07 13:07:48;;;;;;;;;;;;;;;10.41;100.00;100153.50;5091858;28;20416;-76
2021/11/07 13:10:23;;;;;;;;;;;;;;;10.22;100.00;100143.38;5099145;28;19924;-76
2021/11/07 13:12:53;;;;;;;;;;;;;;;9.82;100.00;100141.47;5108175;28;19932;-75
2021/11/07 13:15:28;;;;;;;;;;;;;;;9.49;100.00;100146.13;5100464;28;20362;-75
2021/11/07 13:18:27;;;;;;;;;;;;;;;9.22;100.00;100152.91;5098317;28;19924;-75
2021/11/07 13:26:33;;;;;;;;;;;;;;;8.82;100.00;100165.22;5088782;28;19925;-75
2021/11/07 13:29:28;;;;;;;;;;;;;;;8.88;100.00;100174.69;5091358;28;19928;-75
2021/11/07 13:32:01;;;;;;;;;;;;;;;9.01;100.00;100171.81;5091715;28;20366;-75
2021/11/07 13:34:27;;;;;;;;;;;;;;;8.99;100.00;100165.66;5094280;28;19957;-75
2021/11/07 13:36:56;;;;;;;;;;;;;;;8.96;100.00;100166.78;5095571;28;19985;-75
2021/11/07 13:39:24;;;;;;;;;;;;;;;8.99;100.00;100171.06;5095585;28;19977;-74
2021/11/07 13:41:57;;;;;;;;;;;;;;;9.01;100.00;100159.13;5093534;28;19927;-75